createdAt,value
2017-06-03T00:00:36.895Z,0
2017-06-03T00:01:36.942Z,0
2017-06-03T00:02:37.030Z,0
2017-06-03T00:03:36.968Z,0
2017-06-03T00:04:37.138Z,0
2017-06-03T00:05:37.304Z,0
2017-06-03T00:06:37.070Z,0
2017-06-03T00:07:37.201Z,0
2017-06-03T00:08:37.186Z,0
2017-06-03T00:09:37.192Z,0
2017-06-03T00:10:37.274Z,0
2017-06-03T00:11:37.233Z,0
2017-06-03T00:12:37.309Z,0
2017-06-03T00:13:37.353Z,0
2017-06-03T00:14:37.426Z,0
2017-06-03T00:15:37.413Z,0
2017-06-03T00:16:37.507Z,0
2017-06-03T00:17:37.472Z,0
2017-06-03T00:18:37.474Z,0
2017-06-03T00:19:37.581Z,0
2017-06-03T00:20:37.636Z,0
2017-06-03T00:21:37.695Z,0
2017-06-03T00:22:37.898Z,0
2017-06-03T00:23:37.715Z,0
2017-06-03T00:24:37.700Z,0
2017-06-03T00:25:37.744Z,0
2017-06-03T00:26:37.827Z,0
2017-06-03T00:27:37.835Z,0
2017-06-03T00:28:37.843Z,0
2017-06-03T00:29:37.921Z,0
2017-06-03T00:30:37.982Z,0
2017-06-03T00:31:38.018Z,0
2017-06-03T00:32:37.987Z,0
2017-06-03T00:33:37.989Z,0
2017-06-03T00:34:38.052Z,0
2017-06-03T00:35:38.141Z,0
2017-06-03T00:36:38.146Z,0
2017-06-03T00:37:38.191Z,0
2017-06-03T00:38:38.227Z,0
2017-06-03T00:39:38.243Z,0
2017-06-03T00:40:38.345Z,0
2017-06-03T00:41:38.346Z,0
2017-06-03T00:42:38.353Z,0
2017-06-03T00:43:38.440Z,0
2017-06-03T00:44:38.371Z,0
2017-06-03T00:45:38.551Z,0
2017-06-03T00:46:38.474Z,0
2017-06-03T00:47:38.518Z,0
2017-06-03T00:48:38.547Z,0
2017-06-03T00:49:38.600Z,0
2017-06-03T00:50:38.649Z,0
2017-06-03T00:51:38.640Z,0
2017-06-03T00:52:38.743Z,0
2017-06-03T00:53:38.723Z,0
2017-06-03T00:54:38.757Z,0
2017-06-03T00:55:38.816Z,0
2017-06-03T00:56:38.804Z,0
2017-06-03T00:57:38.858Z,0
2017-06-03T00:58:38.864Z,0
2017-06-03T00:59:38.967Z,0
2017-06-03T01:00:38.945Z,0
2017-06-03T01:01:39.002Z,0
2017-06-03T01:02:38.979Z,0
2017-06-03T01:03:39.032Z,0
2017-06-03T01:04:39.105Z,0
2017-06-03T01:05:39.160Z,0
2017-06-03T01:06:39.166Z,0
2017-06-03T01:07:39.159Z,0
2017-06-03T01:08:39.185Z,0
2017-06-03T01:09:39.258Z,0
2017-06-03T01:10:39.304Z,0
2017-06-03T01:11:39.378Z,0
2017-06-03T01:12:39.350Z,0
2017-06-03T01:13:39.443Z,0
2017-06-03T01:14:39.440Z,0
2017-06-03T01:15:39.453Z,0
2017-06-03T01:16:39.499Z,0
2017-06-03T01:17:39.538Z,0
2017-06-03T01:18:39.518Z,0
2017-06-03T01:19:39.606Z,0
2017-06-03T01:20:39.685Z,0
2017-06-03T01:21:39.651Z,0
2017-06-03T01:22:39.686Z,0
2017-06-03T01:23:39.746Z,0
2017-06-03T01:24:39.756Z,0
2017-06-03T01:25:39.823Z,0
2017-06-03T01:26:39.878Z,0
2017-06-03T01:27:39.935Z,0
2017-06-03T01:28:39.892Z,0
2017-06-03T01:29:39.900Z,0
2017-06-03T01:30:40.013Z,0
2017-06-03T01:31:40.046Z,0
2017-06-03T01:32:40.001Z,0
2017-06-03T01:33:40.108Z,0
2017-06-03T01:34:40.128Z,0
2017-06-03T01:35:40.162Z,0
2017-06-03T01:36:40.241Z,0
2017-06-03T01:37:40.244Z,0
2017-06-03T01:38:40.244Z,0
2017-06-03T01:39:40.272Z,0
2017-06-03T01:40:40.321Z,0
2017-06-03T01:41:40.382Z,0
2017-06-03T01:42:40.417Z,0
2017-06-03T01:43:40.448Z,0
2017-06-03T01:44:40.428Z,0
2017-06-03T01:45:40.517Z,0
2017-06-03T01:46:40.532Z,0
2017-06-03T01:47:40.579Z,0
2017-06-03T01:48:40.649Z,0
2017-06-03T01:49:40.656Z,0
2017-06-03T01:50:40.650Z,0
2017-06-03T01:51:40.727Z,0
2017-06-03T01:52:40.763Z,0
2017-06-03T01:53:40.764Z,0
2017-06-03T01:54:40.809Z,0
2017-06-03T01:55:40.836Z,0
2017-06-03T01:56:40.908Z,0
2017-06-03T01:57:40.950Z,0
2017-06-03T01:58:40.908Z,0
2017-06-03T01:59:40.929Z,0
2017-06-03T02:00:41.050Z,0
2017-06-03T02:01:41.114Z,0
2017-06-03T02:02:41.066Z,0
2017-06-03T02:03:41.125Z,0
2017-06-03T02:04:41.117Z,0
2017-06-03T02:05:41.148Z,0
2017-06-03T02:06:41.250Z,0
2017-06-03T02:07:41.257Z,0
2017-06-03T02:08:41.296Z,0
2017-06-03T02:09:41.327Z,0
2017-06-03T02:10:41.356Z,0
2017-06-03T02:11:41.349Z,0
2017-06-03T02:12:41.338Z,0
2017-06-03T02:13:41.427Z,0
2017-06-03T02:14:41.511Z,0
2017-06-03T02:15:41.463Z,0
2017-06-03T02:16:41.539Z,0
2017-06-03T02:17:41.546Z,0
2017-06-03T02:18:41.579Z,0
2017-06-03T02:19:41.612Z,0
2017-06-03T02:20:41.609Z,0
2017-06-03T02:21:41.679Z,0
2017-06-03T02:22:41.762Z,0
2017-06-03T02:23:41.788Z,0
2017-06-03T02:24:41.778Z,0
2017-06-03T02:25:41.868Z,0
2017-06-03T02:26:41.850Z,0
2017-06-03T02:27:41.921Z,0
2017-06-03T02:28:41.972Z,0
2017-06-03T02:29:41.976Z,0
2017-06-03T02:30:42.044Z,0
2017-06-03T02:31:42.063Z,0
2017-06-03T02:32:42.092Z,0
2017-06-03T02:33:42.089Z,0
2017-06-03T02:34:42.098Z,0
2017-06-03T02:35:42.159Z,0
2017-06-03T02:36:42.175Z,0
2017-06-03T02:37:42.211Z,0
2017-06-03T02:38:42.239Z,0
2017-06-03T02:39:42.312Z,0
2017-06-03T02:40:42.353Z,0
2017-06-03T02:41:42.348Z,0
2017-06-03T02:42:42.367Z,0
2017-06-03T02:43:42.470Z,0
2017-06-03T02:44:42.438Z,5
2017-06-03T02:45:42.559Z,5
2017-06-03T02:46:42.536Z,5
2017-06-03T02:47:42.578Z,5
2017-06-03T02:48:42.653Z,5
2017-06-03T02:49:42.670Z,5
2017-06-03T02:50:42.665Z,5
2017-06-03T02:51:42.682Z,5
2017-06-03T02:52:42.736Z,5
2017-06-03T02:53:42.818Z,5
2017-06-03T02:54:42.773Z,10
2017-06-03T02:55:42.854Z,10
2017-06-03T02:56:42.872Z,10
2017-06-03T02:57:42.954Z,10
2017-06-03T02:58:42.948Z,10
2017-06-03T02:59:42.967Z,10
2017-06-03T03:00:43.000Z,10
2017-06-03T03:01:42.989Z,15
2017-06-03T03:02:43.102Z,15
2017-06-03T03:03:43.154Z,15
2017-06-03T03:04:43.115Z,15
2017-06-03T03:05:43.147Z,15
2017-06-03T03:06:43.231Z,20
2017-06-03T03:07:43.259Z,20
2017-06-03T03:08:43.255Z,20
2017-06-03T03:09:43.307Z,20
2017-06-03T03:10:43.301Z,25
2017-06-03T03:11:43.376Z,25
2017-06-03T03:12:43.411Z,25
2017-06-03T03:13:43.461Z,25
2017-06-03T03:14:43.464Z,25
2017-06-03T03:15:43.552Z,30
2017-06-03T03:16:43.578Z,30
2017-06-03T03:17:43.577Z,30
2017-06-03T03:18:43.555Z,30
2017-06-03T03:19:43.634Z,30
2017-06-03T03:20:43.679Z,35
2017-06-03T03:21:43.786Z,35
2017-06-03T03:22:43.764Z,40
2017-06-03T03:23:43.764Z,40
2017-06-03T03:24:43.845Z,45
2017-06-03T03:25:43.842Z,45
2017-06-03T03:26:43.841Z,50
2017-06-03T03:27:43.898Z,50
2017-06-03T03:28:43.933Z,50
2017-06-03T03:29:43.920Z,55
2017-06-03T03:30:43.993Z,55
2017-06-03T03:31:44.038Z,55
2017-06-03T03:32:44.051Z,60
2017-06-03T03:33:44.072Z,60
2017-06-03T03:34:44.184Z,60
2017-06-03T03:35:44.183Z,65
2017-06-03T03:36:44.200Z,65
2017-06-03T03:37:44.200Z,70
2017-06-03T03:38:44.294Z,70
2017-06-03T03:39:44.298Z,70
2017-06-03T03:40:44.386Z,75
2017-06-03T03:41:44.368Z,75
2017-06-03T03:42:44.444Z,80
2017-06-03T03:43:44.384Z,80
2017-06-03T03:44:44.436Z,80
2017-06-03T03:45:44.453Z,85
2017-06-03T03:46:44.560Z,85
2017-06-03T03:47:44.559Z,90
2017-06-03T03:48:44.669Z,90
2017-06-03T03:49:44.584Z,95
2017-06-03T03:50:44.643Z,100
2017-06-03T03:51:44.656Z,100
2017-06-03T03:52:44.775Z,105
2017-06-03T03:53:44.748Z,105
2017-06-03T03:54:44.756Z,105
2017-06-03T03:55:44.782Z,110
2017-06-03T03:56:44.878Z,110
2017-06-03T03:57:44.866Z,115
2017-06-03T03:58:44.939Z,120
2017-06-03T03:59:44.959Z,120
2017-06-03T04:00:44.930Z,125
2017-06-03T04:01:44.977Z,125
2017-06-03T04:02:44.993Z,130
2017-06-03T04:03:45.050Z,135
2017-06-03T04:04:45.059Z,140
2017-06-03T04:05:45.100Z,150
2017-06-03T04:06:45.138Z,180
2017-06-03T04:07:45.169Z,190
2017-06-03T04:08:45.205Z,185
2017-06-03T04:09:45.223Z,175
2017-06-03T04:10:45.270Z,175
2017-06-03T04:11:45.305Z,175
2017-06-03T04:12:45.346Z,180
2017-06-03T04:13:45.378Z,185
2017-06-03T04:14:45.405Z,225
2017-06-03T04:15:45.424Z,290
2017-06-03T04:16:45.472Z,320
2017-06-03T04:17:45.501Z,315
2017-06-03T04:18:45.540Z,480
2017-06-03T04:19:45.564Z,665
2017-06-03T04:20:45.608Z,740
2017-06-03T04:21:45.645Z,765
2017-06-03T04:22:45.679Z,760
2017-06-03T04:23:45.699Z,770
2017-06-03T04:24:45.739Z,790
2017-06-03T04:25:45.797Z,815
2017-06-03T04:26:45.802Z,775
2017-06-03T04:27:45.841Z,565
2017-06-03T04:28:45.899Z,450
2017-06-03T04:29:45.929Z,410
2017-06-03T04:30:45.943Z,260
2017-06-03T04:31:45.973Z,255
2017-06-03T04:32:46.021Z,250
2017-06-03T04:33:46.056Z,270
2017-06-03T04:34:46.109Z,235
2017-06-03T04:35:46.145Z,260
2017-06-03T04:36:46.179Z,285
2017-06-03T04:37:46.201Z,290
2017-06-03T04:38:46.239Z,275
2017-06-03T04:39:46.275Z,280
2017-06-03T04:40:46.349Z,295
2017-06-03T04:41:46.372Z,320
2017-06-03T04:42:46.395Z,355
2017-06-03T04:43:46.420Z,365
2017-06-03T04:44:46.462Z,335
2017-06-03T04:45:46.488Z,310
2017-06-03T04:46:46.514Z,305
2017-06-03T04:47:46.573Z,305
2017-06-03T04:48:46.613Z,300
2017-06-03T04:49:46.635Z,295
2017-06-03T04:50:46.687Z,295
2017-06-03T04:51:46.723Z,305
2017-06-03T04:52:46.743Z,390
2017-06-03T04:53:46.804Z,425
2017-06-03T04:54:46.821Z,395
2017-06-03T04:55:46.853Z,320
2017-06-03T04:56:46.882Z,305
2017-06-03T04:57:46.925Z,335
2017-06-03T04:58:46.942Z,325
2017-06-03T04:59:46.995Z,325
2017-06-03T05:00:47.070Z,330
2017-06-03T05:01:47.073Z,320
2017-06-03T05:02:47.085Z,315
2017-06-03T05:03:47.110Z,320
2017-06-03T05:04:47.182Z,325
2017-06-03T05:05:47.401Z,325
2017-06-03T05:06:47.273Z,330
2017-06-03T05:07:47.310Z,335
2017-06-03T05:08:47.317Z,345
2017-06-03T05:09:47.355Z,385
2017-06-03T05:10:47.406Z,535
2017-06-03T05:11:47.421Z,550
2017-06-03T05:12:47.448Z,365
2017-06-03T05:13:47.501Z,350
2017-06-03T05:14:47.536Z,335
2017-06-03T05:15:47.570Z,400
2017-06-03T05:16:47.611Z,340
2017-06-03T05:17:47.608Z,390
2017-06-03T05:18:47.654Z,370
2017-06-03T05:19:47.704Z,395
2017-06-03T05:20:47.783Z,355
2017-06-03T05:21:47.789Z,430
2017-06-03T05:22:47.817Z,430
2017-06-03T05:23:47.851Z,500
2017-06-03T05:24:47.888Z,380
2017-06-03T05:25:47.937Z,375
2017-06-03T05:26:47.945Z,450
2017-06-03T05:27:47.995Z,405
2017-06-03T05:28:48.023Z,485
2017-06-03T05:29:48.073Z,505
2017-06-03T05:30:48.071Z,790
2017-06-03T05:31:48.121Z,840
2017-06-03T05:32:48.171Z,635
2017-06-03T05:33:48.216Z,465
2017-06-03T05:34:48.254Z,560
2017-06-03T05:35:48.283Z,585
2017-06-03T05:36:48.320Z,600
2017-06-03T05:37:48.316Z,630
2017-06-03T05:38:48.377Z,525
2017-06-03T05:39:48.381Z,465
2017-06-03T05:40:48.453Z,585
2017-06-03T05:41:48.488Z,515
2017-06-03T05:42:48.524Z,555
2017-06-03T05:43:48.567Z,550
2017-06-03T05:44:48.617Z,505
2017-06-03T05:45:48.672Z,460
2017-06-03T05:46:48.684Z,440
2017-06-03T05:47:48.718Z,525
2017-06-03T05:48:48.747Z,560
2017-06-03T05:49:48.799Z,590
2017-06-03T05:50:48.817Z,465
2017-06-03T05:51:48.865Z,530
2017-06-03T05:52:48.900Z,805
2017-06-03T05:53:48.945Z,735
2017-06-03T05:54:48.993Z,665
2017-06-03T05:55:49.021Z,630
2017-06-03T05:56:49.035Z,550
2017-06-03T05:57:49.093Z,550
2017-06-03T05:58:49.130Z,645
2017-06-03T05:59:49.165Z,725
2017-06-03T06:00:49.193Z,750
2017-06-03T06:01:49.235Z,580
2017-06-03T06:02:49.263Z,540
2017-06-03T06:03:49.315Z,555
2017-06-03T06:04:49.315Z,570
2017-06-03T06:05:49.420Z,645
2017-06-03T06:06:49.416Z,770
2017-06-03T06:07:49.440Z,685
2017-06-03T06:08:49.488Z,710
2017-06-03T06:09:49.528Z,875
2017-06-03T06:10:49.562Z,885
2017-06-03T06:11:49.585Z,730
2017-06-03T06:12:49.626Z,690
2017-06-03T06:13:49.684Z,1025
2017-06-03T06:14:49.717Z,795
2017-06-03T06:15:49.768Z,1480
2017-06-03T06:16:49.804Z,1055
2017-06-03T06:17:49.826Z,1505
2017-06-03T06:18:49.857Z,1370
2017-06-03T06:19:49.923Z,1645
2017-06-03T06:20:49.944Z,1655
2017-06-03T06:21:49.993Z,1755
2017-06-03T06:22:50.037Z,1705
2017-06-03T06:23:50.064Z,1735
2017-06-03T06:24:50.089Z,1450
2017-06-03T06:25:50.155Z,1780
2017-06-03T06:26:50.186Z,1310
2017-06-03T06:27:50.234Z,1125
2017-06-03T06:28:50.284Z,1095
2017-06-03T06:29:50.316Z,960
2017-06-03T06:30:50.319Z,1030
2017-06-03T06:31:50.378Z,810
2017-06-03T06:32:50.427Z,715
2017-06-03T06:33:50.426Z,655
2017-06-03T06:34:50.521Z,610
2017-06-03T06:35:50.551Z,575
2017-06-03T06:36:50.599Z,540
2017-06-03T06:37:50.631Z,510
2017-06-03T06:38:50.681Z,480
2017-06-03T06:39:50.697Z,450
2017-06-03T06:40:50.762Z,435
2017-06-03T06:41:50.790Z,425
2017-06-03T06:42:50.844Z,415
2017-06-03T06:43:50.874Z,410
2017-06-03T06:44:50.929Z,410
2017-06-03T06:45:50.909Z,420
2017-06-03T06:46:51.018Z,440
2017-06-03T06:47:51.031Z,460
2017-06-03T06:48:51.046Z,465
2017-06-03T06:49:51.127Z,485
2017-06-03T06:50:51.154Z,495
2017-06-03T06:51:51.178Z,580
2017-06-03T06:52:51.227Z,580
2017-06-03T06:53:51.249Z,630
2017-06-03T06:54:51.312Z,560
2017-06-03T06:55:51.345Z,560
2017-06-03T06:56:51.376Z,560
2017-06-03T06:57:51.426Z,530
2017-06-03T06:58:51.444Z,510
2017-06-03T06:59:51.537Z,485
2017-06-03T07:00:51.543Z,465
2017-06-03T07:01:51.577Z,450
2017-06-03T07:02:51.612Z,440
2017-06-03T07:03:51.658Z,430
2017-06-03T07:04:51.686Z,425
2017-06-03T07:05:51.753Z,425
2017-06-03T07:06:51.774Z,435
2017-06-03T07:07:51.797Z,460
2017-06-03T07:08:51.850Z,480
2017-06-03T07:09:51.888Z,485
2017-06-03T07:10:51.948Z,490
2017-06-03T07:11:51.996Z,490
2017-06-03T07:12:51.990Z,475
2017-06-03T07:13:52.020Z,480
2017-06-03T07:14:52.077Z,485
2017-06-03T07:15:52.104Z,510
2017-06-03T07:16:52.158Z,545
2017-06-03T07:17:52.183Z,580
2017-06-03T07:18:52.217Z,635
2017-06-03T07:19:52.271Z,695
2017-06-03T07:20:52.296Z,735
2017-06-03T07:21:52.351Z,775
2017-06-03T07:22:52.390Z,825
2017-06-03T07:23:52.410Z,875
2017-06-03T07:24:52.423Z,985
2017-06-03T07:25:52.491Z,1290
2017-06-03T07:26:52.545Z,970
2017-06-03T07:27:52.576Z,865
2017-06-03T07:28:52.617Z,875
2017-06-03T07:29:52.662Z,865
2017-06-03T07:30:52.690Z,845
2017-06-03T07:31:52.723Z,835
2017-06-03T07:32:52.748Z,860
2017-06-03T07:33:52.820Z,995
2017-06-03T07:34:52.855Z,965
2017-06-03T07:35:52.920Z,1100
2017-06-03T07:36:52.955Z,1085
2017-06-03T07:37:52.968Z,1365
2017-06-03T07:38:52.999Z,1300
2017-06-03T07:39:53.037Z,1835
2017-06-03T07:40:53.091Z,1955
2017-06-03T07:41:53.131Z,2015
2017-06-03T07:42:53.170Z,2065
2017-06-03T07:43:53.215Z,1885
2017-06-03T07:44:53.256Z,1660
2017-06-03T07:45:53.291Z,1975
2017-06-03T07:46:53.346Z,1975
2017-06-03T07:47:53.380Z,2110
2017-06-03T07:48:53.418Z,2100
2017-06-03T07:49:53.461Z,2075
2017-06-03T07:50:53.504Z,2030
2017-06-03T07:51:53.510Z,2470
2017-06-03T07:52:53.578Z,2580
2017-06-03T07:53:53.645Z,1675
2017-06-03T07:54:53.663Z,1755
2017-06-03T07:55:53.720Z,1750
2017-06-03T07:56:53.744Z,1570
2017-06-03T07:57:53.784Z,2205
2017-06-03T07:58:53.819Z,1325
2017-06-03T07:59:53.843Z,1270
2017-06-03T08:00:53.924Z,1310
2017-06-03T08:01:53.950Z,1305
2017-06-03T08:02:54.015Z,1290
2017-06-03T08:03:54.020Z,1225
2017-06-03T08:04:54.096Z,1215
2017-06-03T08:05:54.128Z,1425
2017-06-03T08:06:54.182Z,1180
2017-06-03T08:07:54.222Z,1125
2017-06-03T08:08:54.291Z,1125
2017-06-03T08:09:54.292Z,1155
2017-06-03T08:10:54.314Z,1630
2017-06-03T08:11:54.389Z,1405
2017-06-03T08:12:54.420Z,1215
2017-06-03T08:13:54.459Z,1145
2017-06-03T08:14:54.525Z,1095
2017-06-03T08:15:54.568Z,1085
2017-06-03T08:16:54.608Z,1085
2017-06-03T08:17:54.608Z,1050
2017-06-03T08:18:54.679Z,995
2017-06-03T08:19:54.714Z,930
2017-06-03T08:20:54.781Z,875
2017-06-03T08:21:54.819Z,860
2017-06-03T08:22:54.851Z,905
2017-06-03T08:23:54.908Z,1000
2017-06-03T08:24:54.953Z,1065
2017-06-03T08:25:54.983Z,1265
2017-06-03T08:26:55.018Z,1210
2017-06-03T08:27:55.061Z,1090
2017-06-03T08:28:55.113Z,1080
2017-06-03T08:29:55.161Z,1075
2017-06-03T08:30:55.202Z,1000
2017-06-03T08:31:55.231Z,920
2017-06-03T08:32:55.279Z,805
2017-06-03T08:33:55.311Z,715
2017-06-03T08:34:55.348Z,645
2017-06-03T08:35:55.412Z,610
2017-06-03T08:36:55.435Z,600
2017-06-03T08:37:55.480Z,615
2017-06-03T08:38:55.517Z,605
2017-06-03T08:39:55.570Z,585
2017-06-03T08:40:55.611Z,535
2017-06-03T08:41:55.637Z,485
2017-06-03T08:42:55.681Z,440
2017-06-03T08:43:55.742Z,405
2017-06-03T08:44:55.780Z,385
2017-06-03T08:45:55.805Z,365
2017-06-03T08:46:55.856Z,345
2017-06-03T08:47:55.889Z,320
2017-06-03T08:48:55.916Z,285
2017-06-03T08:49:55.972Z,250
2017-06-03T08:50:56.017Z,210
2017-06-03T08:51:56.065Z,175
2017-06-03T08:52:56.104Z,150
2017-06-03T08:53:56.132Z,135
2017-06-03T08:54:56.178Z,125
2017-06-03T08:55:56.216Z,115
2017-06-03T08:56:56.259Z,110
2017-06-03T08:57:56.303Z,105
2017-06-03T08:58:56.327Z,105
2017-06-03T08:59:56.379Z,105
2017-06-03T09:00:56.417Z,105
2017-06-03T09:01:56.453Z,105
2017-06-03T09:02:56.480Z,110
2017-06-03T09:03:56.522Z,110
2017-06-03T09:04:56.578Z,110
2017-06-03T09:05:56.656Z,110
2017-06-03T09:06:56.650Z,110
2017-06-03T09:07:56.704Z,110
2017-06-03T09:08:56.718Z,110
2017-06-03T09:09:56.772Z,110
2017-06-03T09:10:56.813Z,115
2017-06-03T09:11:56.842Z,120
2017-06-03T09:12:56.880Z,125
2017-06-03T09:13:56.916Z,125
2017-06-03T09:14:56.943Z,130
2017-06-03T09:15:56.987Z,140
2017-06-03T09:16:57.052Z,140
2017-06-03T09:17:57.080Z,150
2017-06-03T09:18:57.116Z,160
2017-06-03T09:19:57.145Z,170
2017-06-03T09:20:57.167Z,180
2017-06-03T09:21:57.220Z,185
2017-06-03T09:22:57.264Z,185
2017-06-03T09:23:57.306Z,185
2017-06-03T09:24:57.311Z,185
2017-06-03T09:25:57.362Z,185
2017-06-03T09:26:57.406Z,185
2017-06-03T09:27:57.450Z,190
2017-06-03T09:28:57.483Z,190
2017-06-03T09:29:57.507Z,195
2017-06-03T09:30:57.590Z,200
2017-06-03T09:31:57.591Z,195
2017-06-03T09:32:57.636Z,190
2017-06-03T09:33:57.653Z,190
2017-06-03T09:34:57.725Z,195
2017-06-03T09:35:57.747Z,205
2017-06-03T09:36:57.766Z,210
2017-06-03T09:37:57.775Z,220
2017-06-03T09:38:57.854Z,230
2017-06-03T09:39:57.904Z,235
2017-06-03T09:40:57.937Z,245
2017-06-03T09:41:57.979Z,245
2017-06-03T09:42:58.014Z,250
2017-06-03T09:43:58.017Z,260
2017-06-03T09:44:58.092Z,260
2017-06-03T09:45:58.138Z,265
2017-06-03T09:46:58.176Z,270
2017-06-03T09:47:58.207Z,270
2017-06-03T09:48:58.225Z,275
2017-06-03T09:49:58.308Z,275
2017-06-03T09:50:58.324Z,275
2017-06-03T09:51:58.356Z,270
2017-06-03T09:52:58.395Z,265
2017-06-03T09:53:58.438Z,260
2017-06-03T09:54:58.467Z,255
2017-06-03T09:55:58.505Z,250
2017-06-03T09:56:58.550Z,245
2017-06-03T09:57:58.589Z,240
2017-06-03T09:58:58.634Z,235
2017-06-03T09:59:58.644Z,230
2017-06-03T10:00:58.696Z,225
2017-06-03T10:01:58.716Z,220
2017-06-03T10:02:58.755Z,220
2017-06-03T10:03:58.822Z,215
2017-06-03T10:04:58.856Z,215
2017-06-03T10:05:58.901Z,215
2017-06-03T10:06:58.909Z,215
2017-06-03T10:07:58.968Z,215
2017-06-03T10:08:59.004Z,215
2017-06-03T10:09:59.016Z,215
2017-06-03T10:10:59.069Z,220
2017-06-03T10:11:59.120Z,225
2017-06-03T10:12:59.142Z,235
2017-06-03T10:13:59.183Z,240
2017-06-03T10:14:59.215Z,240
2017-06-03T10:15:59.276Z,240
2017-06-03T10:16:59.303Z,245
2017-06-03T10:17:59.330Z,245
2017-06-03T10:18:59.381Z,240
2017-06-03T10:19:59.421Z,235
2017-06-03T10:20:59.458Z,230
2017-06-03T10:21:59.487Z,220
2017-06-03T10:22:59.517Z,215
2017-06-03T10:23:59.578Z,215
2017-06-03T10:24:59.594Z,210
2017-06-03T10:25:59.616Z,215
2017-06-03T10:26:59.691Z,215
2017-06-03T10:27:59.723Z,215
2017-06-03T10:28:59.756Z,215
2017-06-03T10:29:59.751Z,205
2017-06-03T10:30:59.813Z,195
2017-06-03T10:31:59.869Z,185
2017-06-03T10:32:59.877Z,175
2017-06-03T10:33:59.956Z,165
2017-06-03T10:34:59.983Z,160
2017-06-03T10:36:00.021Z,160
2017-06-03T10:37:00.077Z,160
2017-06-03T10:38:00.106Z,165
2017-06-03T10:39:00.147Z,170
2017-06-03T10:40:00.176Z,175
2017-06-03T10:41:00.221Z,180
2017-06-03T10:42:00.239Z,180
2017-06-03T10:43:00.274Z,185
2017-06-03T10:44:00.341Z,185
2017-06-03T10:45:00.371Z,185
2017-06-03T10:46:00.385Z,185
2017-06-03T10:47:00.440Z,180
2017-06-03T10:48:00.487Z,180
2017-06-03T10:49:00.534Z,180
2017-06-03T10:50:00.555Z,180
2017-06-03T10:51:00.606Z,180
2017-06-03T10:52:00.638Z,185
2017-06-03T10:53:00.665Z,180
2017-06-03T10:54:00.711Z,180
2017-06-03T10:55:00.713Z,180
2017-06-03T10:56:00.794Z,185
2017-06-03T10:57:00.832Z,190
2017-06-03T10:58:00.824Z,200
2017-06-03T10:59:00.895Z,205
2017-06-03T11:00:00.930Z,205
2017-06-03T11:01:00.951Z,220
2017-06-03T11:02:00.993Z,225
2017-06-03T11:03:01.025Z,230
2017-06-03T11:04:01.088Z,245
2017-06-03T11:05:01.113Z,250
2017-06-03T11:06:01.152Z,250
2017-06-03T11:07:01.192Z,245
2017-06-03T11:08:01.228Z,235
2017-06-03T11:09:01.243Z,225
2017-06-03T11:10:01.303Z,230
2017-06-03T11:11:01.329Z,220
2017-06-03T11:12:01.370Z,215
2017-06-03T11:13:01.618Z,210
2017-06-03T11:14:01.423Z,200
2017-06-03T11:15:01.487Z,195
2017-06-03T11:16:01.529Z,185
2017-06-03T11:17:01.543Z,175
2017-06-03T11:18:01.603Z,165
2017-06-03T11:19:01.624Z,165
2017-06-03T11:20:01.676Z,180
2017-06-03T11:21:01.716Z,195
2017-06-03T11:22:01.730Z,195
2017-06-03T11:23:01.771Z,190
2017-06-03T11:24:01.831Z,180
2017-06-03T11:25:01.858Z,180
2017-06-03T11:26:01.892Z,190
2017-06-03T11:27:01.922Z,210
2017-06-03T11:28:01.960Z,225
2017-06-03T11:29:01.992Z,245
2017-06-03T11:30:02.037Z,275
2017-06-03T11:31:02.085Z,300
2017-06-03T11:32:02.112Z,310
2017-06-03T11:33:02.122Z,310
2017-06-03T11:34:02.182Z,315
2017-06-03T11:35:02.224Z,325
2017-06-03T11:36:02.249Z,330
2017-06-03T11:37:02.293Z,335
2017-06-03T11:38:02.326Z,340
2017-06-03T11:39:02.343Z,340
2017-06-03T11:40:02.391Z,330
2017-06-03T11:41:02.431Z,330
2017-06-03T11:42:02.485Z,325
2017-06-03T11:43:02.488Z,330
2017-06-03T11:44:02.546Z,330
2017-06-03T11:45:02.606Z,330
2017-06-03T11:46:02.636Z,330
2017-06-03T11:47:02.668Z,320
2017-06-03T11:48:02.701Z,300
2017-06-03T11:49:02.724Z,285
2017-06-03T11:50:02.771Z,285
2017-06-03T11:51:02.764Z,290
2017-06-03T11:52:02.853Z,295
2017-06-03T11:53:02.873Z,290
2017-06-03T11:54:02.934Z,280
2017-06-03T11:55:02.958Z,265
2017-06-03T11:56:03.011Z,245
2017-06-03T11:57:03.046Z,230
2017-06-03T11:58:03.071Z,220
2017-06-03T11:59:03.087Z,215
2017-06-03T12:00:03.144Z,210
2017-06-03T12:01:03.165Z,200
2017-06-03T12:02:03.187Z,195
2017-06-03T12:03:03.233Z,190
2017-06-03T12:04:03.288Z,190
2017-06-03T12:05:04.552Z,195
2017-06-03T12:06:03.355Z,205
2017-06-03T12:07:03.384Z,225
2017-06-03T12:08:03.431Z,245
2017-06-03T12:09:03.454Z,255
2017-06-03T12:10:03.487Z,240
2017-06-03T12:11:03.543Z,220
2017-06-03T12:12:03.547Z,205
2017-06-03T12:13:03.603Z,190
2017-06-03T12:14:03.660Z,180
2017-06-03T12:16:03.753Z,155
2017-06-03T12:17:03.764Z,145
2017-06-03T12:18:03.999Z,135
2017-06-03T12:19:03.836Z,130
2017-06-03T12:20:03.867Z,125
2017-06-03T12:21:03.924Z,120
2017-06-03T12:22:03.959Z,120
2017-06-03T12:23:03.983Z,125
2017-06-03T12:24:03.994Z,125
2017-06-03T12:25:04.054Z,135
2017-06-03T12:26:04.094Z,145
2017-06-03T12:27:04.133Z,160
2017-06-03T12:28:04.167Z,165
2017-06-03T12:29:04.190Z,175
2017-06-03T12:30:04.216Z,185
2017-06-03T12:31:04.265Z,200
2017-06-03T12:32:04.315Z,215
2017-06-03T12:33:04.344Z,230
2017-06-03T12:34:04.401Z,255
2017-06-03T12:35:04.406Z,285
2017-06-03T12:36:04.470Z,310
2017-06-03T12:37:04.490Z,320
2017-06-03T12:38:04.527Z,310
2017-06-03T12:39:04.564Z,285
2017-06-03T12:40:04.614Z,265
2017-06-03T12:41:04.630Z,245
2017-06-03T12:42:04.672Z,220
2017-06-03T12:43:04.708Z,195
2017-06-03T12:44:04.732Z,185
2017-06-03T12:45:04.778Z,170
2017-06-03T12:46:04.801Z,160
2017-06-03T12:47:04.836Z,150
2017-06-03T12:48:04.890Z,145
2017-06-03T12:49:04.937Z,145
2017-06-03T12:50:04.942Z,145
2017-06-03T12:51:05.002Z,140
2017-06-03T12:52:05.027Z,145
2017-06-03T12:53:05.051Z,145
2017-06-03T12:54:05.100Z,140
2017-06-03T12:55:05.141Z,135
2017-06-03T12:56:05.178Z,145
2017-06-03T12:57:05.212Z,175
2017-06-03T12:58:05.233Z,215
2017-06-03T12:59:05.266Z,235
2017-06-03T13:00:05.319Z,255
2017-06-03T13:01:05.334Z,270
2017-06-03T13:02:05.387Z,270
2017-06-03T13:03:05.435Z,265
2017-06-03T13:04:05.471Z,240
2017-06-03T13:05:05.493Z,215
2017-06-03T13:06:05.532Z,195
2017-06-03T13:07:05.568Z,180
2017-06-03T13:08:05.580Z,165
2017-06-03T13:09:05.643Z,160
2017-06-03T13:10:05.685Z,155
2017-06-03T13:11:05.728Z,160
2017-06-03T13:12:05.723Z,180
2017-06-03T13:13:05.789Z,205
2017-06-03T13:14:05.814Z,220
2017-06-03T13:15:05.837Z,235
2017-06-03T13:16:05.896Z,245
2017-06-03T13:17:05.924Z,240
2017-06-03T13:18:05.963Z,245
2017-06-03T13:19:06.018Z,255
2017-06-03T13:20:06.051Z,290
2017-06-03T13:21:06.093Z,325
2017-06-03T13:22:06.091Z,355
2017-06-03T13:23:06.143Z,385
2017-06-03T13:24:06.169Z,425
2017-06-03T13:25:06.210Z,450
2017-06-03T13:26:06.235Z,470
2017-06-03T13:27:06.286Z,480
2017-06-03T13:28:06.321Z,465
2017-06-03T13:29:06.364Z,455
2017-06-03T13:30:06.403Z,445
2017-06-03T13:31:06.434Z,445
2017-06-03T13:32:06.483Z,455
2017-06-03T13:33:06.502Z,475
2017-06-03T13:34:06.556Z,510
2017-06-03T13:35:06.586Z,540
2017-06-03T13:36:06.641Z,555
2017-06-03T13:37:06.655Z,540
2017-06-03T13:38:06.723Z,520
2017-06-03T13:39:06.722Z,500
2017-06-03T13:40:06.726Z,475
2017-06-03T13:41:06.804Z,445
2017-06-03T13:42:06.877Z,410
2017-06-03T13:43:06.906Z,390
2017-06-03T13:44:06.935Z,395
2017-06-03T13:45:06.956Z,410
2017-06-03T13:46:06.987Z,420
2017-06-03T13:47:07.003Z,425
2017-06-03T13:48:07.042Z,420
2017-06-03T13:49:07.096Z,415
2017-06-03T13:50:07.141Z,400
2017-06-03T13:51:07.177Z,385
2017-06-03T13:52:07.202Z,365
2017-06-03T13:53:07.222Z,365
2017-06-03T13:54:07.267Z,370
2017-06-03T13:55:07.357Z,385
2017-06-03T13:56:07.337Z,405
2017-06-03T13:57:07.395Z,410
2017-06-03T13:58:07.436Z,400
2017-06-03T13:59:07.455Z,385